Loganville, Pennsylvania
Current Conditions -  °F | °C
As of 7:53 AM on Friday 19 Dec 2014 (Local Time) from KTHV Reporting Station
Overcast Overcast  
Wind Chill: 29°   Ceiling: 2900
Heat Index: 34°   Visibility: 10mi
Dew Point: 24°   Wind: 6mph
Humidity: 67%   Direction: 290°WNW
Pressure: 30.1"   Gusts: NA
Location:  39.86°N, 76.71°W
Report Text: KTHV 191253Z AUTO 29005KT 10SM OVC029 01/M04 A3010 RMK AO2 SLP200 T00111044
Loading
Personal Weather Stations






























Interactive Weather Map New forecast layout! Learn more

10-Day Weather Forecast

Advertisements
Track Severe Weather on mobile